Live from Altenrhein
LIVE
LSZR 271750Z VRB01KT CAVOK 23/12 Q1013 NOSIG RMK N

People´s C-Office:

T: +41 (0)71 858 51 65

E: c-office@peoples.ch

Info & Facts LSZR


Information on operating conditions ACH.

LIVE
LSZR 271750Z VRB01KT CAVOK 23/12 Q1013 NOSIG RMK N

Livecam Airport Altenrhein

 

C-Office

Contact and opening hours Altenrhein.

Services Private Aviation

Everything for your well-being here in Altenrhein.

Handling request

We provide tailor made handling services.

Jet pricing tool

Plan and get an estimate for your flight.

Why to Altenrhein?

Short distances, tri-border region etc.

Tariffs

Landing fees, Aircraft services etc.